Тейково-83

Карта отелей и гостиниц, располагающихся рядом с аэропортом Тейково-83 :

Тейково-83 Ивановская область 56° 42' 21.3012" N, 40° 25' 40.0188" E
Код аэродрома ИКАО
HH3V
Код аэродрома RU
ХХ3Ж
Координаты
N56.70592° E040.42778°
Превышение над уровнем моря
0
Основная полоса
05/23
Курс магнитный
047,9/227,9
Длина основной ВПП
30
Ширина основной ВПП
30
Покрытие основной ВПП
Твёрдое
Освещение ВПП
По запросу
Тип: 
Вертодром
Класс аэродрома: 
Принадлежность: 
МО
Статус: 
Действующий
Сайт: 
E-mail аэродрома: 
Страна: 
Россия
Регион: 
Ивановская область
Город: 
Дополнительная информация: 
Оператор: 54-я Гв. РД РВСН.

Найти трансфер

С помощью этой формы Вы можете найти трансфер из аэропорта Тейково-83 в город, аэропорт или вокзал:

Погода в аэропортах:

Авиационная погода в Екатеринбурге

Регион: 
Погода METAR: 
USSS 221800Z 00000MPS 2800 0050W PRFG SCT002 M21/M23 Q1030 R26L/310050 R26R/310050 NOSIG RMK QFE751/1002
Время наблюдения
2022-01-22T18:00:00Z
Температура C
-21.0
Точка росы
-23.0
Направление ветра
0
Скорость ветра (узлы)
0
Метео видимость
1.74
Облачность
SCT
Нижняя граница облачности (футы)
200
Явления погоды
PRFG
Условия полета
IFR
Аэропорт подробнее: 
SCT – разбросанная отдельная облачность;
PRFG - туман просвечивающий;

Авиационная погода в аэропорту Бесовец

Регион: 
Погода METAR: 
ULPB 221800Z AUTO 10002MPS 8000 -SN M07/M09 Q1020 RMK QFE761/1015
Время наблюдения
2022-01-22T18:00:00Z
Температура C
-7.0
Точка росы
-9.0
Направление ветра
100
Скорость ветра (узлы)
4
Метео видимость
4.97
Облачность
Нижняя граница облачности (футы)
Явления погоды
-SN
Условия полета
Аэропорт подробнее: 
-SN – слабый снег;

Авиационная погода в Пскове

Регион: 
Погода METAR: 
ULOO 221800Z 07003MPS 010V110 9000 -SN OVC014 M04/M06 Q1018 R01/490333 NOSIG RMK QFE759
Время наблюдения
2022-01-22T18:00:00Z
Температура C
-4.0
Точка росы
-6.0
Направление ветра
70
Скорость ветра (узлы)
6
Метео видимость
5.59
Облачность
OVC
Нижняя граница облачности (футы)
1400
Явления погоды
-SN
Условия полета
MVFR
OVC – сплошная облачность;
-SN – слабый снег;

Авиационная погода в Зонгулдаке

Регион: 
Погода METAR: 
LTAS 221150Z 11001KT 2200 -SHRASN BR SCT003 BKN025 BKN080 02/01 Q1014
Время наблюдения
2022-01-22T11:50:00Z
Температура C
2.0
Точка росы
1.0
Направление ветра
110
Скорость ветра (узлы)
1
Метео видимость
1.37
Облачность
SCT
BKN
BKN
Нижняя граница облачности (футы)
300
2500
8000
Явления погоды
-SHRA -SHSN BR
Условия полета
IFR
SCT – разбросанная отдельная облачность; BKN – значительная (рассеянная, разорванная) облачность;
-SHRA - слабый ливневой дождь; -SHSN - слабый ливневой снег; BR – дымка (видимость от 1 до 9 км);